Time;durP1;ratioP1;P1;durP2;ratioP2;P2;SDS_P1;SDS_P2;PMS_P1;PMS_P2;Temp;Humidity;BMP_temperature;BMP_pressure;BME280_temperature;BME280_humidity;BME280_pressure;Samples;Min_cycle;Max_cycle;Signal;HPM_P1;HPM_P2
2024/04/15 00:02:03;;;;;;;24.20;21.00;;;8.90;99.90;;;;;;5369169;26;20014;-78
2024/04/15 00:04:31;;;;;;;22.52;20.25;;;8.90;99.90;;;;;;5381914;26;20022;-77
2024/04/15 00:06:58;;;;;;;23.48;21.15;;;8.80;99.90;;;;;;5390756;26;19999;-77
2024/04/15 00:09:25;;;;;;;23.02;19.92;;;8.80;99.90;;;;;;5388019;26;20003;-80
2024/04/15 00:11:55;;;;;;;22.83;20.40;;;8.70;99.90;;;;;;5383164;26;20012;-79
2024/04/15 00:14:22;;;;;;;22.00;19.67;;;8.70;99.90;;;;;;5381839;26;20423;-78
2024/04/15 00:16:49;;;;;;;24.50;20.80;;;8.60;99.90;;;;;;5360827;26;20004;-80
2024/04/15 00:19:16;;;;;;;20.30;18.33;;;8.50;99.90;;;;;;5382196;26;20907;-79
2024/04/15 00:21:45;;;;;;;22.55;19.88;;;8.40;99.90;;;;;;5394559;26;19999;-78
2024/04/15 00:24:13;;;;;;;27.02;19.75;;;8.40;99.90;;;;;;5349694;26;20017;-78
2024/04/15 00:26:40;;;;;;;20.73;17.95;;;8.40;99.90;;;;;;5392275;26;20043;-79
2024/04/15 00:29:07;;;;;;;21.42;17.88;;;8.40;99.90;;;;;;5381661;26;20012;-78
2024/04/15 00:31:36;;;;;;;30.65;18.35;;;8.30;99.90;;;;;;5382631;26;19999;-79
2024/04/15 00:34:03;;;;;;;20.95;17.60;;;8.30;99.90;;;;;;5384365;26;20004;-79
2024/04/15 00:36:31;;;;;;;26.05;18.00;;;8.30;99.90;;;;;;5388155;26;21377;-77
2024/04/15 00:39:02;;;;;;;28.85;17.67;;;8.20;99.90;;;;;;5386980;26;20568;-80
2024/04/15 00:41:29;;;;;;;24.63;19.17;;;8.20;99.90;;;;;;5388520;26;20047;-79
2024/04/15 00:43:57;;;;;;;24.00;18.58;;;8.20;99.90;;;;;;5397223;26;19995;-78
2024/04/15 00:46:24;;;;;;;25.95;18.67;;;8.20;99.90;;;;;;5380744;26;20013;-79
2024/04/15 00:48:53;;;;;;;28.23;19.58;;;8.20;99.90;;;;;;5395314;26;20743;-78
2024/04/15 00:51:21;;;;;;;27.23;19.98;;;8.20;99.90;;;;;;5384014;26;20015;-78
2024/04/15 00:53:50;;;;;;;30.13;19.40;;;8.20;99.90;;;;;;5394378;26;19999;-78
2024/04/15 00:56:20;;;;;;;31.52;19.25;;;8.10;99.90;;;;;;5326091;26;20017;-79
2024/04/15 00:58:48;;;;;;;31.45;19.83;;;8.10;99.90;;;;;;5358527;26;20077;-79
2024/04/15 01:01:16;;;;;;;31.25;19.67;;;8.10;99.90;;;;;;5377228;26;20004;-79
2024/04/15 01:03:45;;;;;;;27.05;19.77;;;8.10;99.90;;;;;;5359835;26;20012;-76
2024/04/15 01:06:14;;;;;;;23.05;18.58;;;8.10;99.90;;;;;;5396360;26;19996;-79
2024/04/15 01:08:41;;;;;;;28.45;19.63;;;8.10;99.90;;;;;;5392009;26;20764;-78
2024/04/15 01:11:09;;;;;;;29.73;19.83;;;8.10;99.90;;;;;;5379784;26;19996;-80
2024/04/15 01:13:36;;;;;;;35.92;20.50;;;8.00;99.90;;;;;;5358045;26;20380;-79
2024/04/15 01:16:03;;;;;;;32.05;21.48;;;8.00;99.90;;;;;;5358299;26;20023;-79
2024/04/15 01:18:32;;;;;;;30.13;21.20;;;8.00;99.90;;;;;;5324354;26;20066;-78
2024/04/15 01:20:59;;;;;;;34.45;20.00;;;8.10;99.90;;;;;;5361491;26;20000;-77
2024/04/15 01:23:31;;;;;;;30.95;19.88;;;8.00;99.90;;;;;;5324568;26;20527;-78
2024/04/15 01:25:59;;;;;;;24.55;18.35;;;8.10;99.90;;;;;;5349019;26;20550;-79
2024/04/15 01:28:28;;;;;;;28.92;21.00;;;8.10;99.90;;;;;;5396396;26;20085;-79
2024/04/15 01:30:55;;;;;;;36.70;20.50;;;8.10;99.90;;;;;;5400868;26;20502;-77
2024/04/15 01:33:22;;;;;;;29.95;21.15;;;8.10;99.90;;;;;;5350922;26;20008;-79
2024/04/15 01:35:49;;;;;;;34.75;22.13;;;8.10;99.90;;;;;;5350611;26;20008;-79
2024/04/15 01:38:17;;;;;;;30.50;20.95;;;8.10;99.90;;;;;;5355363;26;20015;-78
2024/04/15 01:40:44;;;;;;;39.38;23.33;;;8.10;99.90;;;;;;5360637;26;20725;-79
2024/04/15 01:43:11;;;;;;;29.92;21.23;;;8.00;99.90;;;;;;5289192;26;19997;-77
2024/04/15 01:45:39;;;;;;;34.85;22.88;;;8.00;99.90;;;;;;5358143;26;20672;-78
2024/04/15 01:48:07;;;;;;;34.00;22.45;;;8.00;99.90;;;;;;5357015;26;19997;-76
2024/04/15 01:50:34;;;;;;;34.40;21.73;;;8.00;99.90;;;;;;5326960;26;21027;-78
2024/04/15 01:53:01;;;;;;;32.75;22.35;;;7.90;99.90;;;;;;5337831;26;20090;-78
2024/04/15 01:55:30;;;;;;;31.90;23.35;;;7.90;99.90;;;;;;5390224;26;20590;-79
2024/04/15 01:57:57;;;;;;;32.88;23.08;;;8.00;99.90;;;;;;5388727;26;20022;-78
2024/04/15 02:00:24;;;;;;;34.40;23.00;;;7.90;99.90;;;;;;5357022;26;20029;-79
2024/04/15 02:02:51;;;;;;;40.88;21.83;;;7.90;99.90;;;;;;5384620;26;20051;-79
2024/04/15 02:05:19;;;;;;;31.02;21.38;;;7.90;99.90;;;;;;5354906;26;20014;-79
2024/04/15 02:07:48;;;;;;;33.85;22.42;;;7.90;99.90;;;;;;5355294;26;20084;-77
2024/04/15 02:10:18;;;;;;;29.27;22.17;;;7.90;99.90;;;;;;5392333;26;20040;-78
2024/04/15 02:12:45;;;;;;;32.75;22.60;;;7.90;99.90;;;;;;5412304;26;20619;-78
2024/04/15 02:15:12;;;;;;;34.70;20.40;;;7.90;99.90;;;;;;5385172;26;20059;-76
2024/04/15 02:17:39;;;;;;;29.98;20.67;;;7.90;99.90;;;;;;5386253;26;20630;-78
2024/04/15 02:20:08;;;;;;;30.75;20.33;;;7.80;99.90;;;;;;5385649;26;20077;-78
2024/04/15 02:22:36;;;;;;;30.20;19.45;;;7.80;99.90;;;;;;5388686;26;20786;-78
2024/04/15 02:25:04;;;;;;;30.63;20.35;;;7.90;99.90;;;;;;5349322;26;20000;-77
2024/04/15 02:27:35;;;;;;;25.33;19.45;;;7.80;99.90;;;;;;5381610;26;20008;-78
2024/04/15 02:30:05;;;;;;;26.33;17.95;;;7.80;99.90;;;;;;5386067;26;20073;-76
2024/04/15 02:32:33;;;;;;;25.95;17.83;;;7.80;99.90;;;;;;5387587;26;20015;-78
2024/04/15 02:35:00;;;;;;;28.38;17.88;;;7.80;99.90;;;;;;5358181;26;21016;-78
2024/04/15 02:37:28;;;;;;;33.58;19.00;;;7.90;99.90;;;;;;5375158;26;19999;-77
2024/04/15 02:39:55;;;;;;;24.25;18.73;;;7.80;99.90;;;;;;5392506;26;19999;-78
2024/04/15 02:42:22;;;;;;;23.85;17.17;;;7.90;99.90;;;;;;5387456;26;20010;-77
2024/04/15 02:44:49;;;;;;;22.88;17.88;;;7.90;99.90;;;;;;5380759;26;20064;-76
2024/04/15 02:47:17;;;;;;;29.92;17.02;;;7.90;99.90;;;;;;5377688;26;20437;-76
2024/04/15 02:49:45;;;;;;;22.88;17.10;;;7.90;99.90;;;;;;5441669;26;20004;-77
2024/04/15 02:52:12;;;;;;;26.15;17.38;;;7.90;99.90;;;;;;5378116;26;20030;-77
2024/04/15 02:54:39;;;;;;;22.10;17.60;;;7.90;99.90;;;;;;5353597;26;20000;-76
2024/04/15 02:59:58;;;;;;;24.60;19.08;;;7.90;99.90;;;;;;5349423;26;20001;-76
2024/04/15 03:02:28;;;;;;;25.92;18.27;;;8.00;99.90;;;;;;5374358;26;20085;-77
2024/04/15 03:04:55;;;;;;;22.65;17.35;;;7.90;99.90;;;;;;5364339;26;20012;-78
2024/04/15 03:07:22;;;;;;;24.95;17.88;;;8.00;99.90;;;;;;5410323;26;20018;-79
2024/04/15 03:09:55;;;;;;;23.08;18.30;;;8.00;99.90;;;;;;5389454;26;20046;-79
2024/04/15 03:12:23;;;;;;;25.38;19.50;;;8.00;99.90;;;;;;5376545;26;20069;-76
2024/04/15 03:14:50;;;;;;;23.00;19.45;;;8.00;99.90;;;;;;5389145;26;20618;-77
2024/04/15 03:17:17;;;;;;;29.05;19.85;;;8.00;99.90;;;;;;5379324;26;20027;-77
2024/04/15 03:19:50;;;;;;;28.05;20.92;;;8.00;99.90;;;;;;5385013;26;20017;-77
2024/04/15 03:22:17;;;;;;;29.45;20.27;;;8.10;99.90;;;;;;5387996;26;20000;-76
2024/04/15 03:24:50;;;;;;;24.38;21.27;;;8.20;99.90;;;;;;5377424;26;20078;-77
2024/04/15 03:27:17;;;;;;;23.38;20.65;;;8.20;99.90;;;;;;5349069;26;20038;-76
2024/04/15 03:29:45;;;;;;;23.65;20.27;;;8.10;99.90;;;;;;5345758;26;20078;-76
2024/04/15 03:32:12;;;;;;;26.25;20.95;;;8.10;99.90;;;;;;5383733;26;20004;-76
2024/04/15 03:34:41;;;;;;;23.95;19.73;;;8.10;99.90;;;;;;5374625;26;19995;-75
2024/04/15 03:37:08;;;;;;;26.83;19.88;;;8.10;99.90;;;;;;5383864;26;20004;-76
2024/04/15 03:39:35;;;;;;;31.85;20.10;;;8.00;99.90;;;;;;5382213;26;20003;-76
2024/04/15 03:42:02;;;;;;;26.40;19.95;;;8.00;99.90;;;;;;5383304;26;20007;-76
2024/04/15 03:44:29;;;;;;;24.25;20.55;;;8.00;99.90;;;;;;5379754;26;20019;-75
2024/04/15 03:46:57;;;;;;;27.35;20.63;;;8.00;99.90;;;;;;5387483;26;20010;-75
2024/04/15 03:49:25;;;;;;;29.33;19.92;;;8.10;99.90;;;;;;5386093;26;19999;-76
2024/04/15 03:51:52;;;;;;;24.35;19.45;;;8.00;99.90;;;;;;5383001;26;20040;-75
2024/04/15 03:54:19;;;;;;;25.55;20.17;;;8.00;99.90;;;;;;5377864;26;20020;-75
2024/04/15 03:56:46;;;;;;;23.08;20.73;;;8.00;99.90;;;;;;5384466;26;19995;-75
2024/04/15 03:59:13;;;;;;;22.88;20.42;;;8.10;99.90;;;;;;5356374;26;20600;-75
2024/04/15 04:01:41;;;;;;;27.02;21.30;;;8.10;99.90;;;;;;5372783;26;20733;-76
2024/04/15 04:04:08;;;;;;;23.80;21.20;;;8.10;99.90;;;;;;5364711;26;20036;-75
2024/04/15 04:06:36;;;;;;;22.15;19.92;;;8.10;99.90;;;;;;5432511;26;20018;-76
2024/04/15 04:09:03;;;;;;;25.80;20.90;;;8.10;99.90;;;;;;5380291;26;20035;-76
2024/04/15 04:11:30;;;;;;;24.25;21.63;;;8.10;99.90;;;;;;5358493;26;20057;-76
2024/04/15 04:13:57;;;;;;;23.98;21.63;;;8.20;99.90;;;;;;5390953;26;20017;-76
2024/04/15 04:16:25;;;;;;;23.27;20.52;;;8.20;99.90;;;;;;5386533;26;20022;-75
2024/04/15 04:18:52;;;;;;;24.70;22.15;;;8.20;99.90;;;;;;5383928;26;20012;-76
2024/04/15 04:21:19;;;;;;;29.00;22.40;;;8.20;99.90;;;;;;5359636;26;20524;-75
2024/04/15 04:23:46;;;;;;;26.80;23.27;;;8.10;99.90;;;;;;5384565;26;20035;-74
2024/04/15 04:26:13;;;;;;;24.83;22.25;;;8.10;99.90;;;;;;5386335;26;20080;-75
2024/04/15 04:28:41;;;;;;;25.83;21.90;;;8.00;99.90;;;;;;5374824;26;20022;-74
2024/04/15 04:31:08;;;;;;;26.20;21.45;;;8.00;99.90;;;;;;5380486;26;19996;-74
2024/04/15 04:33:35;;;;;;;22.80;20.70;;;8.00;99.90;;;;;;5375364;26;19996;-74
2024/04/15 04:36:03;;;;;;;24.90;20.60;;;8.00;99.90;;;;;;5362210;26;19995;-75
2024/04/15 04:38:30;;;;;;;24.05;20.80;;;8.00;99.90;;;;;;5405562;26;20000;-73
2024/04/15 04:40:58;;;;;;;22.33;20.27;;;8.00;99.90;;;;;;5371638;26;20004;-74
2024/04/15 04:43:26;;;;;;;27.20;22.65;;;8.00;99.90;;;;;;5343598;26;20010;-74
2024/04/15 04:45:54;;;;;;;25.20;21.92;;;8.00;99.90;;;;;;5358834;26;20127;-74
2024/04/15 04:48:22;;;;;;;26.23;22.83;;;8.10;99.90;;;;;;5360862;26;20004;-73
2024/04/15 04:50:50;;;;;;;24.90;20.75;;;8.10;99.90;;;;;;5374718;26;20141;-73
2024/04/15 04:53:17;;;;;;;27.17;23.58;;;8.10;99.90;;;;;;5381606;26;20027;-74
2024/04/15 04:55:45;;;;;;;29.05;22.92;;;8.00;99.90;;;;;;5345066;26;20742;-75
2024/04/15 04:58:13;;;;;;;28.23;23.42;;;8.00;99.90;;;;;;5377064;26;20081;-75
2024/04/15 05:00:40;;;;;;;25.65;21.25;;;8.00;99.90;;;;;;5401929;26;20012;-73
2024/04/15 05:03:07;;;;;;;26.08;23.00;;;8.00;99.90;;;;;;5348522;26;20689;-74
2024/04/15 05:05:35;;;;;;;29.25;26.05;;;8.00;99.90;;;;;;5346356;26;20072;-73
2024/04/15 05:08:02;;;;;;;33.15;27.20;;;8.10;99.90;;;;;;5376228;26;20729;-74
2024/04/15 05:10:29;;;;;;;29.65;26.55;;;8.10;99.90;;;;;;5401393;26;20035;-74
2024/04/15 05:12:57;;;;;;;31.10;26.63;;;8.00;99.90;;;;;;5380176;26;20003;-74
2024/04/15 05:15:24;;;;;;;33.55;27.38;;;8.10;99.90;;;;;;5381566;26;20073;-72
2024/04/15 05:17:51;;;;;;;30.70;27.23;;;8.00;99.90;;;;;;5352084;26;20034;-74
2024/04/15 05:20:18;;;;;;;34.25;30.42;;;8.00;99.90;;;;;;5386621;26;20000;-74
2024/04/15 05:22:46;;;;;;;33.03;28.98;;;8.00;99.90;;;;;;5380294;26;20093;-74
2024/04/15 05:25:13;;;;;;;37.25;29.48;;;8.10;99.90;;;;;;5393165;26;20000;-74
2024/04/15 05:27:40;;;;;;;33.22;28.35;;;8.10;99.90;;;;;;5380175;26;20004;-73
2024/04/15 05:30:07;;;;;;;32.83;28.02;;;8.10;99.90;;;;;;5387892;26;20023;-75
2024/04/15 05:32:35;;;;;;;34.67;28.02;;;8.10;99.90;;;;;;5381534;26;20000;-73
2024/04/15 05:35:03;;;;;;;33.95;29.75;;;8.10;99.90;;;;;;5399302;26;20068;-74
2024/04/15 05:37:31;;;;;;;36.38;29.65;;;8.20;99.90;;;;;;5396817;26;20469;-74
2024/04/15 05:39:58;;;;;;;33.97;28.35;;;8.20;99.90;;;;;;5373681;26;20011;-74
2024/04/15 05:42:27;;;;;;;35.53;29.30;;;8.20;99.90;;;;;;5382971;26;20015;-75
2024/04/15 05:44:55;;;;;;;35.08;30.08;;;8.20;99.90;;;;;;5393546;26;19996;-75
2024/04/15 05:47:22;;;;;;;36.70;30.88;;;8.30;99.90;;;;;;5395473;26;20004;-74
2024/04/15 05:49:49;;;;;;;33.58;29.90;;;8.30;99.90;;;;;;5385126;26;20011;-74
2024/04/15 05:52:17;;;;;;;33.40;28.55;;;8.40;99.90;;;;;;5362980;26;19995;-74
2024/04/15 05:54:44;;;;;;;30.90;27.58;;;8.40;99.90;;;;;;5317932;26;20014;-75
2024/04/15 05:57:11;;;;;;;34.80;30.38;;;8.40;99.90;;;;;;5352425;26;20004;-75
2024/04/15 05:59:38;;;;;;;34.20;28.52;;;8.40;99.90;;;;;;5350079;26;20001;-75
2024/04/15 06:02:05;;;;;;;34.42;28.23;;;8.40;99.90;;;;;;5357907;26;20011;-74
2024/04/15 06:04:35;;;;;;;36.95;28.88;;;8.40;99.90;;;;;;5367745;26;20568;-75
2024/04/15 06:07:02;;;;;;;31.02;27.75;;;8.50;99.90;;;;;;5351091;26;20019;-74
2024/04/15 06:09:30;;;;;;;33.80;30.27;;;8.50;99.90;;;;;;5346737;26;20052;-75
2024/04/15 06:11:57;;;;;;;33.55;30.23;;;8.50;99.90;;;;;;5355320;26;20320;-74
2024/04/15 06:14:25;;;;;;;33.90;30.27;;;8.60;99.90;;;;;;5346918;26;20421;-74
2024/04/15 06:16:52;;;;;;;34.63;31.30;;;8.60;99.90;;;;;;5343140;26;20017;-74
2024/04/15 06:19:20;;;;;;;34.80;30.85;;;8.60;99.90;;;;;;5353711;26;20003;-73
2024/04/15 06:21:47;;;;;;;38.55;31.30;;;8.60;99.90;;;;;;5370547;26;20004;-75
2024/04/15 06:24:14;;;;;;;35.30;31.80;;;8.60;99.90;;;;;;5388756;26;20013;-74
2024/04/15 06:26:42;;;;;;;34.83;31.35;;;8.70;99.90;;;;;;5376271;26;20008;-74
2024/04/15 06:29:09;;;;;;;36.63;31.88;;;8.60;99.90;;;;;;5377426;26;20059;-75
2024/04/15 06:31:36;;;;;;;35.22;31.48;;;8.70;99.90;;;;;;5428628;26;20580;-74
2024/04/15 06:34:03;;;;;;;37.28;33.20;;;8.70;99.90;;;;;;5356024;26;20297;-74
2024/04/15 06:36:31;;;;;;;35.38;31.77;;;8.80;99.90;;;;;;5361903;26;20055;-74
2024/04/15 06:38:58;;;;;;;36.30;32.88;;;8.80;99.90;;;;;;5386046;26;20023;-74
2024/04/15 06:41:27;;;;;;;37.00;33.45;;;8.70;99.90;;;;;;5376140;26;20007;-74
2024/04/15 06:43:54;;;;;;;38.63;35.03;;;8.80;99.90;;;;;;5358065;26;20051;-74
2024/04/15 06:46:22;;;;;;;37.30;34.00;;;8.90;99.90;;;;;;5389717;26;20465;-75
2024/04/15 06:48:49;;;;;;;38.08;34.70;;;8.90;99.90;;;;;;5380626;26;20402;-73
2024/04/15 06:51:16;;;;;;;39.30;35.72;;;9.00;99.90;;;;;;5411663;26;20068;-74
2024/04/15 06:53:44;;;;;;;35.00;31.90;;;9.00;99.90;;;;;;5381160;26;20035;-72
2024/04/15 06:56:11;;;;;;;36.28;32.47;;;9.00;99.90;;;;;;5329753;26;20525;-74
2024/04/15 06:58:38;;;;;;;36.28;32.97;;;9.10;99.90;;;;;;5364747;26;20000;-75
2024/04/15 07:01:05;;;;;;;35.53;32.08;;;9.30;99.90;;;;;;5358855;26;20003;-76
2024/04/15 07:03:33;;;;;;;36.90;33.85;;;9.50;99.90;;;;;;5385235;26;20078;-77
2024/04/15 07:06:00;;;;;;;38.15;34.58;;;9.40;99.90;;;;;;5316055;26;20072;-75
2024/04/15 07:08:28;;;;;;;37.53;34.00;;;9.40;99.90;;;;;;5350322;26;20012;-74
2024/04/15 07:10:55;;;;;;;35.80;32.83;;;9.30;99.90;;;;;;5378156;26;20003;-74
2024/04/15 07:13:22;;;;;;;37.05;34.22;;;9.20;99.90;;;;;;5388363;26;20084;-75
2024/04/15 07:15:49;;;;;;;37.33;34.10;;;9.10;99.90;;;;;;5378098;26;20011;-74
2024/04/15 07:18:17;;;;;;;37.42;34.38;;;9.20;99.90;;;;;;5346666;26;20015;-75
2024/04/15 07:20:47;;;;;;;39.55;35.83;;;9.10;99.90;;;;;;5380421;26;20003;-75
2024/04/15 07:23:14;;;;;;;37.85;34.47;;;9.00;99.90;;;;;;5380615;26;20004;-76
2024/04/15 07:25:43;;;;;;;34.78;31.92;;;9.10;99.90;;;;;;5381129;26;19995;-74
2024/04/15 07:28:10;;;;;;;37.55;34.00;;;9.10;99.90;;;;;;5379270;26;20073;-75
2024/04/15 07:30:37;;;;;;;37.55;33.60;;;9.20;99.90;;;;;;5390863;26;20051;-74
2024/04/15 07:33:05;;;;;;;34.72;31.90;;;9.10;99.90;;;;;;5377835;26;20012;-75
2024/04/15 07:35:36;;;;;;;34.63;31.25;;;9.10;99.90;;;;;;5390289;26;19996;-73
2024/04/15 07:38:04;;;;;;;35.15;31.85;;;9.20;99.90;;;;;;5394455;26;20835;-75
2024/04/15 07:40:31;;;;;;;41.85;35.03;;;9.30;99.90;;;;;;5356461;26;20007;-73
2024/04/15 07:42:58;;;;;;;35.78;32.42;;;9.30;99.90;;;;;;5316498;26;20549;-74
2024/04/15 07:45:27;;;;;;;35.70;32.35;;;9.20;99.90;;;;;;5387474;26;20004;-75
2024/04/15 07:47:54;;;;;;;37.78;33.08;;;9.20;99.90;;;;;;5378219;26;20000;-74
2024/04/15 07:50:21;;;;;;;37.70;33.08;;;9.30;99.90;;;;;;5377725;26;20000;-75
2024/04/15 07:52:48;;;;;;;34.78;31.42;;;9.50;99.90;;;;;;5351831;26;20035;-74
2024/04/15 07:55:15;;;;;;;37.13;33.55;;;9.70;99.90;;;;;;5387796;26;20154;-74
2024/04/15 07:57:42;;;;;;;40.33;36.35;;;9.70;99.90;;;;;;5378321;26;22205;-74
2024/04/15 08:00:09;;;;;;;37.42;33.95;;;9.80;99.90;;;;;;5380140;26;19999;-74
2024/04/15 08:02:41;;;;;;;37.50;33.88;;;9.90;99.90;;;;;;5347058;26;20016;-73
2024/04/15 08:05:08;;;;;;;39.15;35.42;;;10.00;99.90;;;;;;5322014;26;20004;-74
2024/04/15 08:07:36;;;;;;;42.60;38.83;;;10.30;99.90;;;;;;5358176;26;20469;-75
2024/04/15 08:10:03;;;;;;;40.83;37.13;;;10.50;99.90;;;;;;5323555;26;20035;-74
2024/04/15 08:12:30;;;;;;;42.05;38.42;;;10.20;99.90;;;;;;5355993;26;20340;-75
2024/04/15 08:14:58;;;;;;;40.63;37.00;;;10.00;99.90;;;;;;5342337;26;20016;-74
2024/04/15 08:17:25;;;;;;;45.90;41.97;;;9.90;99.90;;;;;;5347043;26;20072;-75
2024/04/15 08:19:52;;;;;;;41.85;38.13;;;9.90;99.90;;;;;;5339555;26;20004;-75
2024/04/15 08:22:22;;;;;;;44.38;40.22;;;9.90;99.90;;;;;;5350172;26;20004;-76
2024/04/15 08:24:50;;;;;;;40.83;37.13;;;10.00;99.90;;;;;;5337521;26;20538;-74
2024/04/15 08:27:20;;;;;;;42.92;39.25;;;10.00;99.90;;;;;;5339216;26;20661;-75
2024/04/15 08:29:47;;;;;;;40.78;37.10;;;10.10;99.90;;;;;;5327742;26;20079;-74
2024/04/15 08:32:15;;;;;;;42.25;38.92;;;10.10;99.90;;;;;;5349084;26;20004;-76
2024/04/15 08:34:42;;;;;;;40.45;37.03;;;10.30;99.90;;;;;;5347046;26;20051;-75
2024/04/15 08:37:09;;;;;;;40.47;37.20;;;10.40;99.90;;;;;;5340211;26;20078;-75
2024/04/15 08:39:37;;;;;;;41.08;37.78;;;10.30;99.90;;;;;;5355416;26;20008;-75
2024/04/15 08:42:19;;;;;;;43.25;39.78;;;10.40;99.90;;;;;;5347147;26;20022;-74
2024/04/15 08:44:48;;;;;;;42.65;39.40;;;10.30;99.90;;;;;;5345942;26;20011;-74
2024/04/15 08:47:28;;;;;;;47.63;43.92;;;10.60;99.90;;;;;;5374635;26;20015;-75
2024/04/15 08:49:59;;;;;;;46.50;43.35;;;10.80;99.90;;;;;;5346934;26;20418;-77
2024/04/15 08:52:27;;;;;;;47.28;43.60;;;11.00;99.90;;;;;;5393291;26;21467;-76
2024/04/15 08:54:54;;;;;;;44.40;40.88;;;11.20;99.90;;;;;;5373011;26;20134;-74
2024/04/15 08:57:22;;;;;;;49.00;45.17;;;11.50;99.90;;;;;;5379538;26;20012;-75
2024/04/15 08:59:51;;;;;;;41.30;38.10;;;11.60;99.90;;;;;;5387472;26;20015;-74
2024/04/15 09:02:18;;;;;;;41.75;38.28;;;11.60;99.90;;;;;;5359796;26;20400;-75
2024/04/15 09:04:47;;;;;;;40.65;37.58;;;11.10;99.90;;;;;;5388241;26;20784;-75
2024/04/15 09:07:14;;;;;;;40.92;37.63;;;10.90;99.90;;;;;;5392855;26;20075;-75
2024/04/15 09:09:42;;;;;;;42.45;38.75;;;10.70;99.90;;;;;;5373601;26;20038;-74
2024/04/15 09:12:09;;;;;;;46.30;42.65;;;10.60;99.90;;;;;;5376233;26;20731;-76
2024/04/15 09:14:36;;;;;;;41.55;37.63;;;10.80;99.90;;;;;;5388482;26;19999;-75
2024/04/15 09:17:05;;;;;;;37.63;34.63;;;11.10;99.90;;;;;;5374768;26;20026;-74
2024/04/15 09:19:33;;;;;;;38.58;35.58;;;11.50;99.90;;;;;;5382851;26;19995;-75
2024/04/15 09:22:01;;;;;;;43.05;39.47;;;11.40;99.90;;;;;;5351756;26;20519;-74
2024/04/15 09:24:29;;;;;;;40.58;37.03;;;11.20;99.90;;;;;;5343128;26;20027;-75
2024/04/15 09:26:56;;;;;;;40.90;37.50;;;11.40;99.90;;;;;;5337454;26;20001;-73
2024/04/15 09:29:24;;;;;;;44.72;41.28;;;11.30;99.90;;;;;;5330930;26;20048;-76
2024/04/15 09:31:51;;;;;;;40.33;36.58;;;11.00;99.90;;;;;;5312805;26;20015;-72
2024/04/15 09:34:18;;;;;;;38.00;35.00;;;11.00;99.90;;;;;;5315041;26;20004;-74
2024/04/15 09:36:58;;;;;;;40.50;37.30;;;11.00;99.90;;;;;;5346605;26;20001;-75
2024/04/15 09:39:27;;;;;;;41.20;37.72;;;11.00;99.90;;;;;;5357214;26;20010;-75
2024/04/15 09:41:56;;;;;;;39.35;36.17;;;10.80;99.90;;;;;;5376572;26;20028;-73
2024/04/15 09:44:25;;;;;;;40.00;36.50;;;10.60;99.90;;;;;;5380078;26;20000;-74
2024/04/15 09:46:53;;;;;;;39.85;36.50;;;10.90;99.90;;;;;;5374831;26;20012;-74
2024/04/15 09:49:21;;;;;;;35.60;32.90;;;11.10;99.90;;;;;;5383414;26;19996;-75
2024/04/15 09:51:55;;;;;;;38.22;34.97;;;11.20;99.90;;;;;;5381751;26;20671;-74
2024/04/15 09:54:30;;;;;;;40.30;36.50;;;11.30;99.90;;;;;;5384563;26;20355;-74
2024/04/15 09:57:08;;;;;;;40.05;36.35;;;11.30;99.90;;;;;;5362469;26;20004;-74
2024/04/15 09:59:39;;;;;;;41.50;37.45;;;11.40;99.90;;;;;;5399147;26;20019;-74
2024/04/15 10:02:17;;;;;;;40.60;37.22;;;11.30;99.90;;;;;;5345510;26;21608;-74
2024/04/15 10:04:47;;;;;;;41.38;37.80;;;11.60;99.90;;;;;;5364113;26;20032;-74
2024/04/15 10:07:16;;;;;;;39.00;36.05;;;11.90;99.90;;;;;;5358145;26;20822;-76
2024/04/15 10:09:44;;;;;;;40.67;37.47;;;12.00;99.90;;;;;;5345772;26;20044;-74
2024/04/15 10:12:11;;;;;;;40.38;36.97;;;11.80;99.90;;;;;;5356700;26;19999;-75
2024/04/15 10:14:38;;;;;;;44.63;40.75;;;11.60;99.90;;;;;;5354873;26;19999;-75
2024/04/15 10:17:09;;;;;;;40.47;37.45;;;11.60;99.90;;;;;;5382348;26;20011;-75
2024/04/15 10:19:36;;;;;;;37.45;34.40;;;11.50;99.90;;;;;;5381267;26;20032;-76
2024/04/15 10:22:03;;;;;;;41.75;38.22;;;11.60;99.90;;;;;;5379478;26;20248;-75
2024/04/15 10:24:31;;;;;;;40.47;36.75;;;11.40;99.90;;;;;;5388291;26;20094;-75
2024/04/15 10:26:59;;;;;;;39.58;36.30;;;11.30;99.90;;;;;;5373934;26;20000;-73
2024/04/15 10:29:27;;;;;;;39.67;36.47;;;11.50;99.90;;;;;;5370207;26;20003;-75
2024/04/15 10:31:57;;;;;;;41.10;38.00;;;11.80;99.90;;;;;;5372423;26;20732;-74
2024/04/15 10:34:26;;;;;;;45.25;41.70;;;11.90;99.90;;;;;;5387645;26;19999;-75
2024/04/15 10:36:55;;;;;;;39.55;36.33;;;12.00;99.90;;;;;;5379642;26;20070;-76
2024/04/15 10:39:23;;;;;;;43.50;40.17;;;12.20;99.90;;;;;;5378615;26;20335;-74
2024/04/15 10:41:52;;;;;;;41.88;38.83;;;12.40;99.90;;;;;;5387495;26;19995;-75
2024/04/15 10:44:21;;;;;;;40.88;37.75;;;12.80;99.90;;;;;;5359282;26;19999;-76
2024/04/15 10:46:48;;;;;;;43.28;40.15;;;12.50;99.90;;;;;;5383018;26;20019;-75
2024/04/15 10:49:16;;;;;;;44.40;41.47;;;12.20;99.90;;;;;;5350456;26;20025;-75
2024/04/15 10:51:45;;;;;;;45.17;41.85;;;12.40;99.90;;;;;;5390057;26;19999;-75
2024/04/15 10:54:13;;;;;;;41.30;37.85;;;12.40;99.90;;;;;;5384817;26;20031;-76
2024/04/15 10:56:40;;;;;;;41.70;38.88;;;12.40;99.90;;;;;;5380573;26;20013;-76
2024/04/15 10:59:15;;;;;;;40.30;37.22;;;12.20;99.90;;;;;;5367567;26;20077;-76
2024/04/15 11:01:45;;;;;;;41.17;38.28;;;11.80;99.90;;;;;;5369992;26;20014;-74
2024/04/15 11:04:13;;;;;;;43.28;40.03;;;11.60;99.90;;;;;;5344525;26;20038;-75
2024/04/15 11:06:41;;;;;;;42.45;39.25;;;11.80;99.90;;;;;;5386415;26;20667;-76
2024/04/15 11:09:09;;;;;;;44.50;41.50;;;12.00;99.90;;;;;;5376309;26;20014;-74
2024/04/15 11:11:38;;;;;;;43.53;40.28;;;12.30;99.90;;;;;;5400164;26;20039;-75
2024/04/15 11:14:11;;;;;;;41.75;38.83;;;12.60;99.90;;;;;;5318238;26;20389;-74
2024/04/15 11:16:46;;;;;;;40.05;37.00;;;12.60;99.90;;;;;;5375564;26;20092;-75
2024/04/15 11:19:16;;;;;;;41.88;38.67;;;12.40;99.90;;;;;;5369825;26;20004;-77
2024/04/15 11:21:43;;;;;;;41.75;38.70;;;12.20;99.90;;;;;;5386679;26;20010;-76
2024/04/15 11:24:10;;;;;;;44.15;40.70;;;12.00;99.90;;;;;;5382600;26;20035;-75
2024/04/15 11:26:38;;;;;;;40.28;37.10;;;12.10;99.90;;;;;;5377137;26;20138;-76
2024/04/15 11:29:07;;;;;;;42.97;39.80;;;12.30;99.90;;;;;;5357565;26;20649;-77
2024/04/15 11:31:36;;;;;;;41.22;38.22;;;12.00;99.90;;;;;;5386298;26;20290;-75
2024/04/15 11:34:04;;;;;;;40.20;37.10;;;11.80;99.90;;;;;;5377913;26;20695;-75
2024/04/15 11:36:31;;;;;;;48.20;44.90;;;12.20;99.90;;;;;;5376463;26;20113;-75
2024/04/15 11:38:59;;;;;;;42.47;39.30;;;12.30;99.90;;;;;;5372513;26;20015;-75
2024/04/15 11:41:27;;;;;;;40.22;36.20;;;12.70;99.90;;;;;;5378948;26;20019;-74
2024/04/15 11:43:54;;;;;;;41.92;38.63;;;12.90;99.90;;;;;;5381547;26;20003;-74
2024/04/15 11:46:21;;;;;;;42.20;38.92;;;13.00;99.90;;;;;;5382368;26;19996;-75
2024/04/15 11:48:49;;;;;;;41.30;37.92;;;12.80;99.90;;;;;;5343272;26;20000;-78
2024/04/15 11:51:17;;;;;;;38.70;36.03;;;12.40;99.90;;;;;;5374456;26;20024;-76
2024/04/15 11:53:47;;;;;;;40.67;37.63;;;12.00;99.90;;;;;;5397151;26;20007;-75
2024/04/15 11:56:14;;;;;;;40.40;37.17;;;11.80;99.90;;;;;;5383633;26;20007;-73
2024/04/15 11:58:42;;;;;;;39.65;36.95;;;11.80;99.90;;;;;;5342994;26;20023;-75
2024/04/15 12:01:09;;;;;;;42.45;39.22;;;11.80;99.90;;;;;;5363102;26;20557;-75
2024/04/15 12:03:37;;;;;;;40.13;37.40;;;11.80;99.90;;;;;;5374964;26;20027;-75
2024/04/15 12:06:05;;;;;;;38.80;36.00;;;11.90;99.90;;;;;;5343096;26;20000;-74
2024/04/15 12:08:36;;;;;;;41.90;38.55;;;12.00;99.90;;;;;;5342924;26;20009;-74
2024/04/15 12:11:25;;;;;;;41.20;38.20;;;12.10;99.90;;;;;;5354706;26;20553;-73
2024/04/15 12:13:52;;;;;;;45.80;42.13;;;12.20;99.90;;;;;;5363753;26;20018;-73
2024/04/15 12:16:19;;;;;;;40.40;37.28;;;12.30;99.90;;;;;;5354079;26;20974;-75
2024/04/15 12:18:47;;;;;;;36.97;34.35;;;12.70;99.90;;;;;;5382697;26;20074;-75
2024/04/15 12:21:14;;;;;;;37.83;34.88;;;12.80;99.90;;;;;;5358676;26;20011;-75
2024/04/15 12:23:41;;;;;;;40.30;37.55;;;12.60;99.90;;;;;;5350112;26;20005;-74
2024/04/15 12:26:08;;;;;;;40.35;37.35;;;12.40;99.90;;;;;;5341737;26;20000;-77
2024/04/15 12:28:35;;;;;;;40.97;38.05;;;12.40;99.90;;;;;;5317090;26;20082;-74
2024/04/15 12:31:02;;;;;;;41.90;38.78;;;12.50;99.90;;;;;;5358723;26;20047;-76
2024/04/15 12:33:29;;;;;;;37.10;34.50;;;12.40;99.90;;;;;;5359276;26;20054;-75
2024/04/15 12:36:02;;;;;;;38.67;35.22;;;12.30;99.90;;;;;;5385172;26;20631;-73
2024/04/15 12:38:29;;;;;;;39.15;36.17;;;12.50;99.90;;;;;;5380528;26;20011;-75
2024/04/15 12:40:56;;;;;;;41.47;38.08;;;12.70;99.90;;;;;;5385756;26;20048;-74